Geyser, Montana
Current Conditions -  °F | °C
As of 6:56 AM on Thursday 23 Oct 2014 (Local Time) from KGFA Reporting Station
Few Clouds Few Clouds  
Wind Chill: 53°   Ceiling: Unl
Heat Index: 53°   Visibility: 10mi
Dew Point: 32°   Wind: 18mph
Humidity: 46%   Direction: 210°SSW
Pressure: 29.82"   Gusts: 24mph
Location:  47.25°N, 110.5°W
Report Text: KGFA 231256Z AUTO 21016G21KT 10SM FEW150 11/00 A2982 RMK AO2 SLP107 T01140001
Loading
Personal Weather Stations






























Interactive Weather Map
Tropical Storm Tracking
New forecast layout! Learn more

10-Day Weather Forecast

Advertisements
Track Severe Weather on mobile